Time;durP1;ratioP1;P1;durP2;ratioP2;P2;SDS_P1;SDS_P2;PMS_P1;PMS_P2;Temp;Humidity;BMP_temperature;BMP_pressure;BME280_temperature;BME280_humidity;BME280_pressure;Samples;Min_cycle;Max_cycle;Signal;HPM_P1;HPM_P2
2022/06/21 00:03:06;;;;;;;5.07;2.88;;;;;;;17.09;100.00;98352.13;5111447;28;20044;-63
2022/06/21 00:05:52;;;;;;;4.30;2.38;;;;;;;17.01;100.00;98371.41;5086570;28;20039;-64
2022/06/21 00:08:37;;;;;;;4.35;2.70;;;;;;;17.05;100.00;98370.13;5090064;28;20031;-65
2022/06/21 00:11:27;;;;;;;4.28;2.60;;;;;;;16.98;100.00;98377.00;5111755;28;21640;-65
2022/06/21 00:14:11;;;;;;;4.60;2.28;;;;;;;17.04;98.05;98368.44;5103610;28;20039;-65
2022/06/21 00:16:57;;;;;;;4.00;2.17;;;;;;;17.03;98.49;98379.19;5117781;28;20036;-64
2022/06/21 00:19:43;;;;;;;3.72;2.30;;;;;;;17.01;98.53;98378.53;5095546;28;20105;-65
2022/06/21 00:22:27;;;;;;;3.53;2.10;;;;;;;17.00;99.21;98388.28;5097459;28;20054;-64
2022/06/21 00:25:20;;;;;;;3.75;2.13;;;;;;;16.92;100.00;98388.22;5097394;28;20033;-64
2022/06/21 00:28:05;;;;;;;3.20;2.10;;;;;;;16.86;100.00;98389.66;5096781;28;20085;-65
2022/06/21 00:30:52;;;;;;;4.30;2.10;;;;;;;16.93;99.27;98405.75;5095334;28;20036;-65
2022/06/21 00:33:37;;;;;;;3.50;2.20;;;;;;;16.94;99.20;98402.13;5094204;28;20038;-63
2022/06/21 00:36:27;;;;;;;3.58;1.90;;;;;;;16.83;98.83;98393.44;5076952;28;20044;-64
2022/06/21 00:39:14;;;;;;;3.97;2.15;;;;;;;16.72;99.99;98397.19;5085294;28;20161;-65
2022/06/21 00:42:13;;;;;;;3.47;2.15;;;;;;;16.81;98.56;98397.25;5075371;28;20040;-64
2022/06/21 00:45:00;;;;;;;3.30;2.03;;;;;;;16.75;98.65;98399.53;5075484;28;20128;-65
2022/06/21 00:47:52;;;;;;;4.35;1.70;;;;;;;16.70;99.97;98400.94;5089392;28;20070;-65
2022/06/21 00:50:41;;;;;;;5.57;1.85;;;;;;;16.66;100.00;98399.63;5093587;28;20139;-63
2022/06/21 00:53:35;;;;;;;4.38;1.85;;;;;;;16.56;99.71;98386.47;5089391;28;20036;-65
2022/06/21 00:56:32;;;;;;;2.40;1.70;;;;;;;16.44;100.00;98399.94;5089525;28;20039;-64
2022/06/21 00:59:30;;;;;;;3.60;1.83;;;;;;;16.31;100.00;98395.03;5094392;28;20360;-65
2022/06/21 01:02:20;;;;;;;2.60;1.40;;;;;;;16.53;99.72;98394.72;5092016;28;20059;-65
2022/06/21 01:05:05;;;;;;;2.30;1.50;;;;;;;16.48;98.03;98396.00;5093291;28;20056;-64
2022/06/21 01:07:54;;;;;;;3.38;1.27;;;;;;;16.43;96.50;98419.44;5092168;28;20386;-64
2022/06/21 01:10:41;;;;;;;1.60;1.20;;;;;;;16.31;96.61;98410.88;5089460;28;20069;-64
2022/06/21 01:13:31;;;;;;;1.88;1.10;;;;;;;16.31;95.28;98410.06;5092265;28;20040;-64
2022/06/21 01:16:18;;;;;;;1.65;0.90;;;;;;;16.31;94.60;98404.75;5091972;28;20043;-64
2022/06/21 01:19:12;;;;;;;1.27;1.00;;;;;;;16.30;93.07;98392.53;5081909;28;20060;-63
2022/06/21 01:22:01;;;;;;;1.20;0.80;;;;;;;16.34;90.51;98384.16;5097740;28;20055;-64
2022/06/21 01:24:54;;;;;;;1.85;0.98;;;;;;;16.27;89.39;98393.69;5084419;28;20070;-64
2022/06/21 01:27:40;;;;;;;1.08;0.77;;;;;;;15.99;90.86;98394.56;5112929;28;20050;-64
2022/06/21 01:30:26;;;;;;;1.48;0.73;;;;;;;16.02;91.90;98401.38;5113833;28;20065;-64
2022/06/21 01:33:17;;;;;;;2.20;1.10;;;;;;;15.84;93.18;98396.88;5107041;28;20432;-64
2022/06/21 01:36:28;;;;;;;2.65;0.93;;;;;;;15.94;92.17;98402.09;5108050;28;20093;-64
2022/06/21 01:39:20;;;;;;;1.23;0.70;;;;;;;15.82;92.16;98390.06;5112654;28;20138;-65
2022/06/21 01:42:15;;;;;;;1.50;0.80;;;;;;;15.59;94.59;98404.50;5085975;28;20043;-63
2022/06/21 01:45:05;;;;;;;4.93;0.77;;;;;;;15.62;94.52;98414.75;5112296;28;20075;-64
2022/06/21 01:47:54;;;;;;;1.58;0.90;;;;;;;15.57;94.99;98401.16;5083136;28;20070;-64
2022/06/21 01:50:40;;;;;;;1.65;1.08;;;;;;;15.45;95.93;98412.91;5112485;28;20040;-65
2022/06/21 01:53:26;;;;;;;2.45;1.00;;;;;;;15.41;97.31;98422.09;5083289;28;20063;-65
2022/06/21 01:56:21;;;;;;;1.85;1.23;;;;;;;15.48;99.16;98426.66;5099501;28;20035;-64
2022/06/21 01:59:17;;;;;;;2.55;1.15;;;;;;;15.42;98.75;98426.38;5112311;28;20088;-65
2022/06/21 02:02:08;;;;;;;4.00;1.05;;;;;;;15.52;97.77;98437.75;5113023;28;20036;-65
2022/06/21 02:05:00;;;;;;;1.70;0.90;;;;;;;15.37;97.40;98422.34;5071570;28;20114;-65
2022/06/21 02:07:51;;;;;;;2.78;0.90;;;;;;;15.42;96.96;98431.66;5111429;28;20048;-64
2022/06/21 02:10:41;;;;;;;1.50;0.70;;;;;;;15.23;97.07;98439.50;5113015;28;20065;-64
2022/06/21 02:13:43;;;;;;;3.45;0.95;;;;;;;15.24;96.02;98437.69;5100640;28;20031;-65
2022/06/21 02:16:28;;;;;;;1.27;0.80;;;;;;;15.18;95.82;98439.09;5104762;28;20040;-65
2022/06/21 02:19:23;;;;;;;1.42;0.80;;;;;;;15.19;95.60;98453.13;5093265;28;20052;-65
2022/06/21 02:22:21;;;;;;;1.50;0.80;;;;;;;15.25;94.00;98456.03;5114098;28;20040;-65
2022/06/21 02:25:15;;;;;;;1.02;0.80;;;;;;;15.24;90.16;98453.53;5106666;28;20066;-65
2022/06/21 02:28:06;;;;;;;1.25;0.70;;;;;;;15.33;88.38;98451.81;5125979;28;20118;-65
2022/06/21 02:30:52;;;;;;;2.70;0.60;;;;;;;15.15;88.36;98445.50;5114405;28;20051;-65
2022/06/21 02:33:39;;;;;;;1.05;0.57;;;;;;;15.06;87.60;98459.53;5112364;28;20387;-64
2022/06/21 02:36:29;;;;;;;0.77;0.60;;;;;;;15.00;89.00;98468.84;5097398;28;20062;-64
2022/06/21 02:39:19;;;;;;;0.68;0.40;;;;;;;15.08;89.05;98472.59;5111546;28;20046;-63
2022/06/21 02:42:20;;;;;;;0.57;0.38;;;;;;;14.95;88.33;98465.78;5100363;28;20093;-65
2022/06/21 02:45:18;;;;;;;1.97;0.57;;;;;;;14.64;90.04;98463.28;5111095;28;20047;-65
2022/06/21 02:48:10;;;;;;;1.17;0.70;;;;;;;14.61;87.61;98469.66;5112230;28;20050;-63
2022/06/21 02:51:01;;;;;;;0.60;0.40;;;;;;;14.57;87.14;98464.81;5096879;28;20161;-65
2022/06/21 02:54:01;;;;;;;2.20;0.50;;;;;;;14.47;86.15;98462.19;5093787;28;20038;-63
2022/06/21 02:56:58;;;;;;;1.27;0.50;;;;;;;14.56;85.84;98468.44;5107707;28;20107;-64
2022/06/21 02:59:44;;;;;;;1.50;0.40;;;;;;;14.43;85.48;98472.16;5111721;28;20043;-65
2022/06/21 03:02:32;;;;;;;0.50;0.40;;;;;;;14.44;85.06;98475.63;5084748;28;20039;-65
2022/06/21 03:05:21;;;;;;;0.82;0.40;;;;;;;14.28;86.89;98482.28;5112143;28;20067;-65
2022/06/21 03:08:07;;;;;;;4.70;0.60;;;;;;;14.35;84.49;98491.28;5111122;28;20470;-65
2022/06/21 03:10:52;;;;;;;1.35;0.40;;;;;;;14.33;84.81;98498.50;5096254;28;20442;-64
2022/06/21 03:13:37;;;;;;;2.05;0.40;;;;;;;14.29;83.39;98505.84;5081405;28;20051;-65
2022/06/21 03:16:22;;;;;;;2.08;0.50;;;;;;;14.25;81.24;98495.69;5075450;28;20124;-64
2022/06/21 03:19:19;;;;;;;1.98;0.45;;;;;;;14.14;80.72;98499.28;5077792;28;20043;-64
2022/06/21 03:22:17;;;;;;;0.95;0.50;;;;;;;14.24;81.53;98494.88;5096608;28;20047;-64
2022/06/21 03:25:07;;;;;;;1.75;0.77;;;;;;;14.09;77.99;98510.22;5100343;28;20107;-64
2022/06/21 03:27:58;;;;;;;1.40;0.57;;;;;;;14.29;77.73;98516.41;5111411;28;20459;-64
2022/06/21 03:30:43;;;;;;;0.70;0.30;;;;;;;14.10;76.62;98514.50;5085549;28;20093;-64
2022/06/21 03:33:29;;;;;;;0.57;0.50;;;;;;;14.17;75.71;98528.00;5081587;28;20074;-65
2022/06/21 03:36:19;;;;;;;2.97;1.40;;;;;;;14.12;77.19;98522.28;5105447;28;20131;-65
2022/06/21 03:41:42;;;;;;;0.63;0.40;;;;;;;14.21;73.67;98521.50;5113284;28;20490;-65
2022/06/21 03:42:34;;;;;;;2.50;0.50;;;;;;;14.16;73.69;98539.50;5115770;28;20031;-64
2022/06/21 03:45:34;;;;;;;1.35;0.60;;;;;;;14.19;73.75;98548.94;5114798;28;20068;-65
2022/06/21 03:48:30;;;;;;;0.68;0.40;;;;;;;14.23;74.20;98558.25;5116015;28;20043;-64
2022/06/21 03:51:21;;;;;;;1.60;0.57;;;;;;;14.23;73.20;98553.78;5083908;28;20386;-64
2022/06/21 03:54:12;;;;;;;2.03;0.70;;;;;;;14.35;73.70;98544.00;5099121;28;20034;-64
2022/06/21 03:57:18;;;;;;;1.95;0.55;;;;;;;14.28;75.43;98542.88;5114742;28;20044;-65
2022/06/21 04:00:09;;;;;;;1.75;0.50;;;;;;;14.33;74.17;98550.38;5115085;28;20097;-64
2022/06/21 04:03:14;;;;;;;2.80;0.70;;;;;;;14.48;72.47;98553.44;5087476;28;20067;-65
2022/06/21 04:06:13;;;;;;;2.08;0.40;;;;;;;14.44;73.26;98552.06;5114677;28;20470;-64
2022/06/21 04:09:08;;;;;;;1.83;0.55;;;;;;;14.49;73.12;98563.03;5114855;28;20059;-64
2022/06/21 04:12:06;;;;;;;2.85;0.50;;;;;;;14.35;73.95;98559.78;5115544;28;20172;-64
2022/06/21 04:15:18;;;;;;;0.60;0.40;;;;;;;14.40;75.63;98570.78;5085499;28;20040;-64
2022/06/21 04:18:33;;;;;;;2.30;0.80;;;;;;;14.42;75.27;98573.28;5101763;28;20497;-65
2022/06/21 04:21:42;;;;;;;1.63;0.50;;;;;;;14.72;74.16;98563.59;5106885;28;20035;-65
2022/06/21 04:24:38;;;;;;;;;;;;;;;14.75;72.68;98576.50;5111944;28;20071;-64
2022/06/21 04:27:55;;;;;;;0.98;0.47;;;;;;;14.63;72.16;98567.06;5096629;28;19931;-64
2022/06/21 04:30:49;;;;;;;1.30;0.60;;;;;;;14.47;75.20;98565.78;5117981;28;20066;-65
2022/06/21 04:33:50;;;;;;;2.22;0.68;;;;;;;14.54;74.31;98582.72;5116608;28;20071;-65
2022/06/21 04:36:42;;;;;;;1.40;0.50;;;;;;;14.67;73.45;98581.66;5103892;28;20066;-65
2022/06/21 04:39:41;;;;;;;1.83;0.60;;;;;;;14.63;73.54;98586.34;5114134;28;20390;-64
2022/06/21 04:42:34;;;;;;;1.55;0.70;;;;;;;14.53;73.38;98586.34;5099117;28;20062;-63
2022/06/21 04:45:25;;;;;;;;;;;;;;;14.60;73.14;98578.72;5105275;28;20109;-66
2022/06/21 04:48:28;;;;;;;2.90;0.60;;;;;;;14.59;74.11;98592.03;5114052;28;19916;-65
2022/06/21 04:51:21;;;;;;;1.40;0.70;;;;;;;14.56;74.40;98593.13;5095608;28;20479;-64
2022/06/21 04:54:13;;;;;;;1.23;0.73;;;;;;;14.75;74.88;98592.31;5114524;28;20123;-65
2022/06/21 04:57:06;;;;;;;0.90;0.70;;;;;;;14.77;74.34;98586.94;5102499;28;20048;-64
2022/06/21 04:59:57;;;;;;;1.75;0.70;;;;;;;14.83;74.44;98585.59;5113664;28;20031;-64
2022/06/21 05:02:46;;;;;;;1.70;0.65;;;;;;;14.95;74.36;98592.38;5099507;28;20063;-64
2022/06/21 05:05:37;;;;;;;2.30;0.68;;;;;;;14.98;74.50;98589.47;5099387;28;20108;-64
2022/06/21 05:08:23;;;;;;;5.63;0.70;;;;;;;15.14;72.58;98596.84;5078990;28;20137;-64
2022/06/21 05:11:11;;;;;;;3.15;0.70;;;;;;;15.13;73.73;98603.09;5112179;28;20312;-65
2022/06/21 05:13:59;;;;;;;0.70;0.55;;;;;;;15.08;73.72;98607.94;5099031;28;20035;-65
2022/06/21 05:16:45;;;;;;;1.38;0.50;;;;;;;15.12;73.66;98619.91;5089138;28;20122;-65
2022/06/21 05:19:33;;;;;;;2.58;0.40;;;;;;;15.30;72.61;98634.19;5098269;28;20109;-64
2022/06/21 05:22:28;;;;;;;1.00;0.55;;;;;;;15.17;73.30;98629.19;5098608;28;20036;-64
2022/06/21 05:25:26;;;;;;;1.75;0.70;;;;;;;15.37;71.94;98627.41;5114187;28;20063;-65
2022/06/21 05:28:28;;;;;;;1.85;0.60;;;;;;;15.12;72.58;98632.25;5101101;28;20035;-64
2022/06/21 05:31:23;;;;;;;2.38;0.50;;;;;;;15.07;73.08;98630.03;5102169;28;20036;-64
2022/06/21 05:34:10;;;;;;;1.10;0.50;;;;;;;15.50;72.51;98621.81;5099560;28;20565;-64
2022/06/21 05:37:14;;;;;;;2.78;0.65;;;;;;;15.36;72.42;98629.19;5110560;28;20390;-64
2022/06/21 05:40:07;;;;;;;2.55;0.60;;;;;;;15.55;73.58;98626.69;5114312;28;20486;-64
2022/06/21 05:42:52;;;;;;;0.88;0.50;;;;;;;15.50;72.29;98625.28;5100265;28;20491;-64
2022/06/21 05:45:37;;;;;;;1.02;0.70;;;;;;;15.97;70.61;98628.13;5092614;28;20036;-64
2022/06/21 05:48:24;;;;;;;1.77;0.50;;;;;;;16.00;70.31;98623.44;5112970;28;20039;-62
2022/06/21 05:51:39;;;;;;;3.25;0.50;;;;;;;15.94;69.70;98626.63;5104768;28;20347;-65
2022/06/21 05:54:34;;;;;;;2.75;0.70;;;;;;;15.93;69.05;98632.03;5109071;28;20097;-65
2022/06/21 05:57:23;;;;;;;1.88;0.63;;;;;;;15.93;69.31;98632.03;5091210;28;20039;-65
2022/06/21 06:00:23;;;;;;;2.13;0.70;;;;;;;16.08;69.65;98632.44;5116141;28;20059;-65
2022/06/21 06:03:19;;;;;;;1.55;0.70;;;;;;;16.42;67.45;98647.72;5113162;28;20159;-65
2022/06/21 06:06:09;;;;;;;1.17;0.70;;;;;;;16.22;68.66;98647.00;5112561;28;20035;-64
2022/06/21 06:09:00;;;;;;;3.47;0.70;;;;;;;16.17;68.45;98650.06;5113674;28;20048;-64
2022/06/21 06:12:03;;;;;;;1.45;0.70;;;;;;;15.95;68.03;98635.34;5114239;28;20039;-64
2022/06/21 06:14:55;;;;;;;1.75;0.63;;;;;;;16.39;66.85;98637.47;5100345;28;20097;-64
2022/06/21 06:17:50;;;;;;;1.20;0.50;;;;;;;16.24;66.87;98631.81;5097191;28;20044;-64
2022/06/21 06:21:01;;;;;;;4.38;0.75;;;;;;;16.38;66.71;98644.56;5096800;28;20513;-65
2022/06/21 06:23:57;;;;;;;2.72;0.80;;;;;;;16.45;66.27;98646.63;5087060;28;20067;-67
2022/06/21 06:26:45;;;;;;;1.27;0.60;;;;;;;16.26;66.54;98643.06;5083342;28;20497;-65
2022/06/21 06:29:46;;;;;;;2.50;0.68;;;;;;;16.55;65.46;98655.31;5097429;28;20501;-65
2022/06/21 06:32:39;;;;;;;3.30;0.70;;;;;;;16.42;64.99;98657.50;5096681;28;20099;-62
2022/06/21 06:35:25;;;;;;;0.82;0.50;;;;;;;16.72;64.43;98650.25;5111387;28;20478;-64
2022/06/21 06:38:15;;;;;;;3.72;1.00;;;;;;;17.07;62.98;98659.19;5103927;28;20057;-64
2022/06/21 06:41:11;;;;;;;2.08;0.70;;;;;;;17.46;62.36;98654.63;5099003;28;20385;-65
2022/06/21 06:43:58;;;;;;;2.15;0.80;;;;;;;17.78;61.42;98658.50;5093320;28;20521;-65
2022/06/21 06:46:48;;;;;;;1.73;0.70;;;;;;;17.94;61.72;98654.31;5111824;28;20039;-65
2022/06/21 06:49:42;;;;;;;2.97;0.80;;;;;;;18.22;60.45;98662.97;5099058;28;20407;-65
2022/06/21 06:52:35;;;;;;;3.22;0.88;;;;;;;18.25;60.20;98658.34;5111426;28;20046;-64
2022/06/21 06:55:20;;;;;;;2.45;0.77;;;;;;;18.72;60.29;98664.97;5112549;28;20126;-64
2022/06/21 06:58:12;;;;;;;1.70;0.57;;;;;;;18.80;58.75;98651.75;5083500;28;20044;-65
2022/06/21 07:01:05;;;;;;;1.63;0.68;;;;;;;19.22;60.03;98656.34;5101453;28;20363;-66
2022/06/21 07:04:03;;;;;;;2.53;1.00;;;;;;;18.76;58.42;98638.97;5096571;28;20051;-64
2022/06/21 07:06:52;;;;;;;1.30;0.63;;;;;;;18.98;57.53;98644.66;5111725;28;20470;-65
2022/06/21 07:09:47;;;;;;;2.22;0.80;;;;;;;19.18;56.45;98647.88;5097624;28;20040;-64
2022/06/21 07:12:32;;;;;;;2.65;0.88;;;;;;;19.14;56.16;98650.03;5111831;28;20040;-65
2022/06/21 07:15:22;;;;;;;3.00;1.05;;;;;;;19.35;55.06;98651.38;5116023;28;20045;-65
2022/06/21 07:18:26;;;;;;;2.25;1.00;;;;;;;18.99;54.74;98644.50;5102211;28;20043;-63
2022/06/21 07:21:11;;;;;;;1.25;0.70;;;;;;;19.54;54.04;98654.69;5115616;28;20134;-64
2022/06/21 07:23:59;;;;;;;3.65;1.02;;;;;;;19.63;53.25;98652.88;5116148;28;20077;-63
2022/06/21 07:26:57;;;;;;;1.80;0.93;;;;;;;20.37;52.00;98656.44;5103082;28;20040;-64
2022/06/21 07:29:58;;;;;;;2.47;0.65;;;;;;;20.32;51.29;98656.91;5100277;28;20044;-63
2022/06/21 07:32:51;;;;;;;3.05;0.80;;;;;;;20.16;51.81;98649.81;5100104;28;20043;-62
2022/06/21 07:35:47;;;;;;;2.58;0.90;;;;;;;20.32;50.92;98648.94;5101033;28;20129;-65
2022/06/21 07:38:44;;;;;;;2.80;0.80;;;;;;;20.34;51.74;98646.09;5115808;28;20035;-65
2022/06/21 07:41:37;;;;;;;5.93;0.98;;;;;;;20.89;50.66;98654.19;5099377;28;20047;-65
2022/06/21 07:44:39;;;;;;;1.80;0.80;;;;;;;20.28;51.92;98655.63;5115312;28;20060;-66
2022/06/21 07:47:34;;;;;;;4.25;0.90;;;;;;;19.93;51.21;98655.81;5104871;28;20039;-63
2022/06/21 07:50:25;;;;;;;1.70;1.02;;;;;;;20.48;50.55;98656.06;5099511;28;20085;-65
2022/06/21 07:53:18;;;;;;;2.65;0.70;;;;;;;20.57;50.81;98651.50;5085489;28;20058;-63
2022/06/21 07:56:26;;;;;;;3.38;1.35;;;;;;;21.18;48.65;98658.03;5115125;28;20040;-65
2022/06/21 07:59:38;;;;;;;3.38;0.77;;;;;;;20.75;49.01;98655.75;5103146;28;20125;-65
2022/06/21 08:09:28;;;;;;;2.17;0.80;;;;;;;22.23;45.95;98641.44;5113401;28;20031;-66
2022/06/21 08:12:14;;;;;;;0.98;0.60;;;;;;;21.17;48.00;98643.03;5079029;28;20035;-64
2022/06/21 08:15:01;;;;;;;2.97;0.80;;;;;;;21.42;47.78;98640.19;5102613;28;20074;-64
2022/06/21 08:18:11;;;;;;;1.42;0.85;;;;;;;21.77;46.76;98653.06;5098670;28;20073;-64
2022/06/21 08:21:01;;;;;;;2.25;0.80;;;;;;;21.38;47.31;98652.22;5115168;28;20050;-66
2022/06/21 08:23:45;;;;;;;2.63;1.30;;;;;;;21.34;46.91;98645.59;5114649;28;20062;-66
2022/06/21 08:26:44;;;;;;;2.30;0.75;;;;;;;21.22;47.26;98656.66;5099422;28;20035;-65
2022/06/21 08:29:36;;;;;;;2.75;0.80;;;;;;;21.29;46.85;98657.63;5115154;28;20045;-65
2022/06/21 08:32:31;;;;;;;2.35;0.70;;;;;;;21.57;46.86;98642.91;5116543;28;20047;-65
2022/06/21 08:35:25;;;;;;;1.77;0.65;;;;;;;21.09;46.33;98649.25;5116308;28;20115;-66
2022/06/21 08:38:12;;;;;;;2.53;0.80;;;;;;;21.57;44.68;98645.59;5120745;28;20032;-65
2022/06/21 08:41:51;;;;;;;2.35;0.65;;;;;;;21.54;44.10;98645.94;5099341;28;20163;-65
2022/06/21 08:44:42;;;;;;;3.38;0.68;;;;;;;21.75;45.51;98649.75;5114324;28;20032;-65
2022/06/21 08:47:44;;;;;;;2.85;1.05;;;;;;;21.49;44.97;98641.16;5090514;28;20088;-63
2022/06/21 08:51:03;;;;;;;1.33;0.60;;;;;;;22.42;43.82;98635.72;5113099;28;20040;-65
2022/06/21 08:54:10;;;;;;;3.35;0.88;;;;;;;22.45;44.23;98641.53;5101147;28;20035;-64
2022/06/21 08:57:15;;;;;;;4.82;0.95;;;;;;;23.31;42.57;98641.84;5098388;28;20036;-64
2022/06/21 09:00:21;;;;;;;1.55;0.70;;;;;;;22.59;43.55;98633.66;5113621;28;20032;-65
2022/06/21 09:03:38;;;;;;;3.08;0.90;;;;;;;22.26;43.24;98627.72;5099861;28;20093;-64
2022/06/21 09:06:38;;;;;;;1.40;0.60;;;;;;;21.73;43.66;98639.28;5056667;28;20040;-66
2022/06/21 09:09:35;;;;;;;2.95;0.90;;;;;;;21.87;45.22;98650.97;5098789;28;20036;-66
2022/06/21 09:12:33;;;;;;;3.33;0.90;;;;;;;22.79;42.84;98644.63;5083859;28;20036;-65
2022/06/21 09:15:37;;;;;;;3.17;0.90;;;;;;;23.00;41.80;98645.66;5098619;28;20035;-65
2022/06/21 09:18:59;;;;;;;1.58;0.80;;;;;;;23.14;41.04;98649.31;5088461;28;20036;-66
2022/06/21 09:21:52;;;;;;;3.45;1.02;;;;;;;23.21;42.17;98647.53;5103394;28;20039;-66
2022/06/21 09:24:45;;;;;;;1.95;0.80;;;;;;;23.19;41.77;98640.72;5097549;28;20428;-65
2022/06/21 09:27:46;;;;;;;2.72;0.80;;;;;;;23.67;40.94;98650.81;5112977;28;20035;-65
2022/06/21 09:30:41;;;;;;;2.55;0.90;;;;;;;25.30;38.70;98641.69;5113316;28;20044;-66
2022/06/21 09:33:43;;;;;;;1.75;0.63;;;;;;;25.54;37.41;98646.66;5093992;28;20094;-66
2022/06/21 09:36:49;;;;;;;1.63;0.60;;;;;;;24.53;38.42;98640.03;5082858;28;20102;-66
2022/06/21 09:39:42;;;;;;;2.72;0.90;;;;;;;24.89;38.36;98642.63;5097536;28;20063;-66
2022/06/21 09:42:39;;;;;;;1.95;0.60;;;;;;;24.86;38.76;98633.13;5098051;28;20122;-67
2022/06/21 09:45:37;;;;;;;1.70;0.55;;;;;;;25.05;40.19;98636.09;5086551;28;20390;-66
2022/06/21 09:48:29;;;;;;;2.30;0.70;;;;;;;25.06;38.75;98641.25;5112617;28;20106;-65
2022/06/21 09:51:32;;;;;;;2.00;0.70;;;;;;;24.91;36.88;98636.06;5112847;28;20032;-65
2022/06/21 09:54:34;;;;;;;3.15;0.75;;;;;;;23.91;38.56;98640.69;5113029;28;20486;-66
2022/06/21 09:57:29;;;;;;;3.05;0.50;;;;;;;23.50;40.69;98634.25;5101515;28;20051;-66
2022/06/21 10:00:23;;;;;;;1.80;0.68;;;;;;;24.02;38.19;98633.16;5082247;28;20532;-66
2022/06/21 10:03:14;;;;;;;1.70;0.80;;;;;;;25.31;36.46;98645.22;5112603;28;20039;-65
2022/06/21 10:06:11;;;;;;;1.23;0.60;;;;;;;25.21;36.18;98642.94;5111776;28;20096;-64
2022/06/21 10:09:31;;;;;;;0.90;0.50;;;;;;;25.96;34.70;98646.44;5111760;28;20479;-65
2022/06/21 10:12:18;;;;;;;2.95;0.68;;;;;;;26.43;34.29;98640.16;5112975;28;20040;-66
2022/06/21 10:15:21;;;;;;;1.77;0.70;;;;;;;25.13;36.22;98649.31;5100911;28;20390;-66
2022/06/21 10:18:18;;;;;;;1.67;0.65;;;;;;;24.94;36.02;98651.72;5099763;28;20074;-66
2022/06/21 10:21:30;;;;;;;1.50;0.60;;;;;;;24.81;35.89;98640.94;5111659;28;20035;-67
2022/06/21 10:24:21;;;;;;;1.83;0.40;;;;;;;24.94;36.45;98642.84;5111833;28;20046;-66
2022/06/21 10:27:44;;;;;;;3.58;0.50;;;;;;;24.80;38.22;98660.72;5097282;28;20039;-66
2022/06/21 10:30:39;;;;;;;2.90;0.47;;;;;;;25.18;35.72;98670.13;5104070;28;20051;-66
2022/06/21 10:34:04;;;;;;;0.82;0.47;;;;;;;25.63;33.64;98660.69;5099872;28;20040;-65
2022/06/21 10:37:00;;;;;;;1.52;0.63;;;;;;;26.40;32.90;98660.19;5109333;28;20061;-67
2022/06/21 10:40:31;;;;;;;1.27;0.60;;;;;;;26.43;33.28;98646.34;5111868;28;20055;-66
2022/06/21 10:43:40;;;;;;;4.80;0.60;;;;;;;27.12;32.30;98647.69;5111764;28;20111;-67
2022/06/21 10:46:44;;;;;;;2.53;0.50;;;;;;;26.91;32.47;98649.63;5080779;28;20036;-66
2022/06/21 10:49:47;;;;;;;1.67;0.40;;;;;;;26.90;32.79;98642.59;5070169;28;20405;-66
2022/06/21 10:53:13;;;;;;;0.77;0.50;;;;;;;27.82;32.29;98647.78;5088981;28;20039;-66
2022/06/21 11:02:54;;;;;;;2.38;0.52;;;;;;;26.28;32.90;98664.53;5103934;28;20088;-64
2022/06/21 11:05:53;;;;;;;0.35;0.35;;;;;;;26.07;32.29;98653.03;5106793;28;20048;-64
2022/06/21 11:09:14;;;;;;;4.28;0.80;;;;;;;27.21;32.04;98650.13;5111846;28;20154;-65
2022/06/21 11:15:43;;;;;;;1.40;0.65;;;;;;;27.55;32.59;98651.47;5085642;28;20032;-66
2022/06/21 11:18:47;;;;;;;1.67;0.60;;;;;;;27.73;30.84;98651.81;5091443;28;20044;-67
2022/06/21 11:22:04;;;;;;;0.63;0.40;;;;;;;27.92;30.45;98645.38;5099197;28;20359;-67
2022/06/21 11:25:08;;;;;;;0.77;0.40;;;;;;;27.97;32.00;98646.59;5081481;28;20113;-66
2022/06/21 11:28:11;;;;;;;2.03;0.73;;;;;;;28.39;31.90;98637.88;5115279;28;20524;-65
2022/06/21 11:31:05;;;;;;;0.40;0.32;;;;;;;27.97;29.27;98650.13;5114115;28;20531;-65
2022/06/21 11:34:12;;;;;;;0.68;0.30;;;;;;;28.09;31.19;98642.09;5111343;28;20047;-66
2022/06/21 11:37:14;;;;;;;0.82;0.60;;;;;;;27.45;31.40;98639.59;5100182;28;20434;-66
2022/06/21 11:40:33;;;;;;;1.85;0.40;;;;;;;27.04;31.34;98640.69;5110918;28;20043;-64
2022/06/21 11:43:50;;;;;;;2.55;0.50;;;;;;;27.75;29.59;98644.31;5110706;28;20067;-66
2022/06/21 11:46:49;;;;;;;1.85;0.40;;;;;;;27.32;30.84;98643.19;5095204;28;20042;-66
2022/06/21 11:49:55;;;;;;;1.23;0.50;;;;;;;26.65;30.96;98629.13;5110589;28;20047;-65
2022/06/21 11:52:46;;;;;;;1.35;0.40;;;;;;;28.52;28.40;98626.13;5096188;28;20417;-67
2022/06/21 11:55:46;;;;;;;1.77;0.40;;;;;;;28.28;28.61;98637.53;5082840;28;20043;-65
2022/06/21 11:58:54;;;;;;;0.68;0.40;;;;;;;27.61;29.18;98620.22;5094792;28;20500;-66
2022/06/21 12:02:12;;;;;;;0.93;0.43;;;;;;;27.58;29.61;98617.97;5085128;28;20043;-68
2022/06/21 12:05:08;;;;;;;2.58;0.40;;;;;;;29.09;27.64;98622.25;5069912;28;20070;-65
2022/06/21 12:07:55;;;;;;;2.65;0.45;;;;;;;28.01;27.97;98623.56;5113886;28;20394;-64
2022/06/21 12:11:21;;;;;;;1.73;0.50;;;;;;;28.22;29.49;98629.56;5090506;28;20051;-66
2022/06/21 12:14:18;;;;;;;1.90;0.30;;;;;;;27.95;28.98;98617.22;5078218;28;20055;-66
2022/06/21 12:17:23;;;;;;;1.85;0.40;;;;;;;28.44;27.64;98594.94;5102929;28;20093;-66
2022/06/21 12:20:20;;;;;;;0.43;0.20;;;;;;;28.37;28.88;98604.97;5094311;28;20075;-66
2022/06/21 12:23:23;;;;;;;1.17;0.30;;;;;;;28.34;27.51;98590.09;5106651;28;20044;-66
2022/06/21 12:26:16;;;;;;;0.88;0.30;;;;;;;28.73;28.05;98599.72;5114472;28;20084;-66
2022/06/21 12:29:06;;;;;;;1.05;0.47;;;;;;;29.07;28.06;98593.91;5115045;28;20069;-65
2022/06/21 12:31:56;;;;;;;1.92;0.60;;;;;;;28.22;27.61;98595.38;5078709;28;20079;-67
2022/06/21 12:34:46;;;;;;;1.47;0.50;;;;;;;27.53;27.94;98607.84;5112036;28;20116;-66
2022/06/21 12:37:40;;;;;;;0.95;0.40;;;;;;;26.79;28.90;98592.25;5092854;28;20043;-66
2022/06/21 12:40:34;;;;;;;0.50;0.30;;;;;;;27.86;28.18;98605.91;5103187;28;20082;-65
2022/06/21 12:43:34;;;;;;;3.03;0.50;;;;;;;28.93;27.13;98601.31;5098747;28;20063;-67
2022/06/21 12:46:30;;;;;;;2.50;0.43;;;;;;;28.24;27.64;98604.06;5098523;28;20554;-66
2022/06/21 12:49:33;;;;;;;1.35;0.40;;;;;;;28.43;27.52;98600.56;5114411;28;20039;-66
2022/06/21 12:52:30;;;;;;;0.68;0.45;;;;;;;27.76;27.77;98581.41;5114357;28;20043;-66
2022/06/21 12:55:41;;;;;;;3.03;0.50;;;;;;;27.92;27.87;98598.84;5113637;28;20411;-67
2022/06/21 12:58:26;;;;;;;1.33;0.40;;;;;;;28.56;26.88;98583.41;5085780;28;20054;-67
2022/06/21 13:01:21;;;;;;;2.00;0.30;;;;;;;29.02;28.66;98581.09;5098850;28;20040;-65
2022/06/21 13:04:17;;;;;;;1.35;0.45;;;;;;;27.93;28.10;98573.56;5110093;28;20042;-65
2022/06/21 13:07:34;;;;;;;0.50;0.40;;;;;;;27.79;27.46;98568.31;5099011;28;20035;-65
2022/06/21 13:10:21;;;;;;;2.30;0.50;;;;;;;27.17;27.74;98572.56;5113799;28;20085;-67
2022/06/21 13:13:34;;;;;;;0.35;0.22;;;;;;;28.61;27.44;98572.75;5098925;28;20055;-66
2022/06/21 13:16:34;;;;;;;2.63;0.40;;;;;;;28.47;27.38;98561.34;5113676;28;20146;-66
2022/06/21 13:19:37;;;;;;;1.27;0.50;;;;;;;28.13;27.37;98562.56;5113252;28;20046;-66
2022/06/21 13:22:53;;;;;;;0.40;0.30;;;;;;;28.74;26.76;98555.59;5113199;28;20046;-67
2022/06/21 13:26:10;;;;;;;2.17;0.50;;;;;;;27.60;28.71;98564.75;5093247;28;20501;-66
2022/06/21 13:29:21;;;;;;;0.35;0.20;;;;;;;28.33;27.14;98556.16;5091425;28;20123;-65
2022/06/21 13:32:21;;;;;;;1.50;0.55;;;;;;;28.06;27.44;98551.06;5113460;28;20043;-66
2022/06/21 13:35:21;;;;;;;1.73;0.20;;;;;;;28.28;26.35;98559.47;5102241;28;20390;-66
2022/06/21 13:38:21;;;;;;;1.20;0.40;;;;;;;28.75;26.42;98559.91;5089192;28;20055;-65
2022/06/21 13:44:50;;;;;;;0.82;0.30;;;;;;;28.80;25.59;98545.75;5097191;28;20031;-67
2022/06/21 13:47:57;;;;;;;1.02;0.40;;;;;;;27.82;27.62;98545.53;5108609;28;20069;-66
2022/06/21 13:50:52;;;;;;;0.88;0.40;;;;;;;27.51;29.42;98541.88;5099771;28;20077;-66
2022/06/21 13:53:38;;;;;;;0.45;0.30;;;;;;;27.93;29.19;98538.56;5103992;28;20165;-65
2022/06/21 13:56:33;;;;;;;1.00;0.30;;;;;;;26.76;27.93;98537.09;5109705;28;20140;-67
2022/06/21 13:59:30;;;;;;;1.15;0.40;;;;;;;26.64;28.00;98538.81;5112366;28;20032;-67
2022/06/21 14:02:27;;;;;;;0.60;0.40;;;;;;;26.39;28.99;98537.72;5104397;28;20058;-67
2022/06/21 14:05:25;;;;;;;2.50;0.45;;;;;;;27.37;28.04;98538.53;5112661;28;20067;-66
2022/06/21 14:08:36;;;;;;;0.55;0.32;;;;;;;27.37;28.99;98533.94;5112703;28;20104;-64
2022/06/21 14:11:44;;;;;;;0.30;0.20;;;;;;;27.94;27.17;98523.25;5091476;28;20063;-66
2022/06/21 14:14:47;;;;;;;0.75;0.40;;;;;;;28.17;27.71;98518.00;5110701;28;20027;-66